To NAV CANADA Home Page Login to a new session Search on AWWS site Feedback and Comments Disclaimer Vers la page française équivalente Tips FAQ What's new on the site To the Forecasts and Observations / NOTAM section To "File a Flight Plan" website Publications and other links Update of the User's profile FIC Telephone Numbers My Weather Data Folder Route Weather Data Regional Weather Data Local Weather Data To the Forecasts and Observations / NOTAM section
Request Generated 05/30/2015 at 10:15:40 UTC . Weather information available at that time is displayed.

METAR/TAF

ABBOTSFORD/BC    

METAR CYXX 301000Z 26003KT 15SM BKN210 14/09 A2990 RMK CI5 SLP124=
METAR CYXX 300900Z 25003KT 15SM BKN210 15/08 A2990 RMK CI5 SLP123
DENSITY ALT 200FT=
METAR CYXX 300800Z VRB02KT 15SM SCT210 16/07 A2989 RMK CI4 SLP121
DENSITY ALT 300FT=

TAF CYXX 300538Z 3006/3106 VRB03KT P6SM FEW040 SCT240
BECMG 3018/3020 22010KT
RMK NXT FCST BY 301200Z=
Your time UTC time
Weather data provided by Environment Canada and NAV CANADA